createdAt,value
2022-10-05T00:01:01.815Z,54.88
2022-10-05T00:03:32.156Z,55.19
2022-10-05T00:05:58.483Z,54.34
2022-10-05T00:08:30.031Z,54.65
2022-10-05T00:10:56.330Z,55.04
2022-10-05T00:13:24.992Z,54.73
2022-10-05T00:15:53.292Z,54.65
2022-10-05T00:18:20.797Z,54.59
2022-10-05T00:20:47.776Z,54.18
2022-10-05T00:23:16.165Z,54.60
2022-10-05T00:25:42.509Z,54.45
2022-10-05T00:28:15.302Z,54.69
2022-10-05T00:30:42.981Z,54.63
2022-10-05T00:33:09.423Z,54.72
2022-10-05T00:35:36.188Z,54.63
2022-10-05T00:38:02.563Z,54.20
2022-10-05T00:40:35.267Z,54.73
2022-10-05T00:43:10.079Z,54.85
2022-10-05T00:45:39.373Z,54.58
2022-10-05T00:48:14.603Z,54.51
2022-10-05T00:50:50.853Z,54.36
2022-10-05T00:53:25.278Z,54.52
2022-10-05T00:55:57.276Z,54.61
2022-10-05T00:58:30.810Z,54.58
2022-10-05T01:01:04.950Z,54.52
2022-10-05T01:03:39.190Z,55.05
2022-10-05T01:06:10.020Z,54.61
2022-10-05T01:08:40.621Z,54.09
2022-10-05T01:11:10.356Z,54.48
2022-10-05T01:13:42.866Z,54.57
2022-10-05T01:16:15.020Z,54.42
2022-10-05T01:18:50.188Z,54.36
2022-10-05T01:21:19.259Z,54.35
2022-10-05T01:23:57.249Z,54.36
2022-10-05T01:26:31.621Z,54.31
2022-10-05T01:29:03.146Z,54.43
2022-10-05T01:31:35.045Z,54.42
2022-10-05T01:34:11.195Z,54.50
2022-10-05T01:36:41.838Z,54.49
2022-10-05T01:39:13.600Z,55.06
2022-10-05T01:41:45.583Z,54.15
2022-10-05T01:44:15.610Z,54.29
2022-10-05T01:46:44.028Z,54.64
2022-10-05T01:49:22.408Z,54.36
2022-10-05T01:51:54.347Z,54.31
2022-10-05T01:54:26.907Z,54.33
2022-10-05T01:56:59.898Z,54.27
2022-10-05T01:59:33.910Z,54.24
2022-10-05T02:02:01.976Z,54.22
2022-10-05T02:05:00.408Z,54.26
2022-10-05T02:07:21.454Z,54.32
2022-10-05T02:09:50.617Z,54.63
2022-10-05T02:12:19.360Z,54.22
2022-10-05T02:14:49.281Z,54.17
2022-10-05T02:17:17.310Z,54.28
2022-10-05T02:19:46.213Z,54.21
2022-10-05T02:22:14.968Z,54.19
2022-10-05T02:24:44.987Z,54.17
2022-10-05T02:27:14.886Z,54.21
2022-10-05T02:29:45.029Z,54.26
2022-10-05T02:32:15.258Z,54.29
2022-10-05T02:34:42.350Z,54.26
2022-10-05T02:37:16.950Z,54.45
2022-10-05T02:39:47.424Z,54.62
2022-10-05T02:42:20.195Z,54.34
2022-10-05T02:44:55.327Z,54.26
2022-10-05T02:47:26.128Z,54.42
2022-10-05T02:49:57.789Z,54.34
2022-10-05T02:52:26.692Z,54.24
2022-10-05T02:54:59.457Z,54.14
2022-10-05T02:57:28.245Z,54.16
2022-10-05T02:59:58.006Z,54.19
2022-10-05T03:02:28.487Z,54.13
2022-10-05T03:05:00.808Z,54.33
2022-10-05T03:07:29.039Z,54.23
2022-10-05T03:10:01.056Z,54.21
2022-10-05T03:12:33.672Z,54.44
2022-10-05T03:15:03.380Z,54.00
2022-10-05T03:17:34.666Z,54.26
2022-10-05T03:20:11.856Z,54.32
2022-10-05T03:22:46.690Z,54.15
2022-10-05T03:25:21.450Z,54.13
2022-10-05T03:27:52.153Z,54.25
2022-10-05T03:30:19.659Z,54.04
2022-10-05T03:32:52.115Z,54.10
2022-10-05T03:35:22.336Z,54.33
2022-10-05T03:37:51.507Z,54.18
2022-10-05T03:40:24.829Z,54.21
2022-10-05T03:42:56.360Z,54.83
2022-10-05T03:45:27.481Z,53.88
2022-10-05T03:48:01.582Z,54.13
2022-10-05T03:50:33.907Z,54.29
2022-10-05T03:53:03.697Z,54.27
2022-10-05T03:55:33.737Z,54.03
2022-10-05T03:58:18.229Z,53.96
2022-10-05T04:00:46.792Z,54.12
2022-10-05T04:03:18.754Z,54.08
2022-10-05T04:05:47.895Z,54.04
2022-10-05T04:08:18.271Z,54.02
2022-10-05T04:10:48.127Z,54.36
2022-10-05T04:13:18.357Z,54.33
2022-10-05T04:15:48.199Z,54.10
2022-10-05T04:18:20.719Z,54.52
2022-10-05T04:20:49.703Z,54.14
2022-10-05T04:23:19.645Z,53.88
2022-10-05T04:25:48.515Z,54.09
2022-10-05T04:28:17.851Z,53.92
2022-10-05T04:30:45.869Z,54.08
2022-10-05T04:33:12.349Z,54.03
2022-10-05T04:35:54.061Z,54.22
2022-10-05T04:38:26.803Z,54.17
2022-10-05T04:40:59.559Z,54.72
2022-10-05T04:43:32.704Z,54.03
2022-10-05T04:46:05.856Z,53.97
2022-10-05T04:48:46.604Z,54.48
2022-10-05T04:51:25.117Z,54.31
2022-10-05T04:53:54.105Z,54.37
2022-10-05T04:56:27.763Z,54.22
2022-10-05T04:59:01.247Z,54.27
2022-10-05T05:01:37.739Z,54.24
2022-10-05T05:04:13.911Z,54.44
2022-10-05T05:06:46.803Z,54.44
2022-10-05T05:09:28.223Z,54.30
2022-10-05T05:12:02.700Z,55.11
2022-10-05T05:14:38.523Z,54.65
2022-10-05T05:17:13.499Z,54.46
2022-10-05T05:19:45.200Z,54.80
2022-10-05T05:22:16.661Z,54.60
2022-10-05T05:24:49.969Z,57.18
2022-10-05T05:27:27.245Z,57.84
2022-10-05T05:29:59.351Z,57.82
2022-10-05T05:32:34.203Z,58.28
2022-10-05T05:35:06.206Z,57.93
2022-10-05T05:37:36.385Z,57.32
2022-10-05T05:40:06.016Z,57.06
2022-10-05T05:42:38.089Z,56.83
2022-10-05T05:45:07.971Z,56.91
2022-10-05T05:47:35.355Z,56.91
2022-10-05T05:50:09.747Z,56.50
2022-10-05T05:52:41.003Z,56.58
2022-10-05T05:55:13.327Z,56.40
2022-10-05T05:57:41.996Z,56.22
2022-10-05T06:00:16.007Z,56.40
2022-10-05T06:02:46.198Z,56.29
2022-10-05T06:05:23.433Z,56.23
2022-10-05T06:07:52.862Z,56.32
2022-10-05T06:10:25.096Z,56.43
2022-10-05T06:12:56.429Z,56.50
2022-10-05T06:15:29.769Z,56.41
2022-10-05T06:17:58.701Z,56.54
2022-10-05T06:20:27.296Z,56.55
2022-10-05T06:22:57.693Z,56.69
2022-10-05T06:25:30.296Z,56.65
2022-10-05T06:27:59.877Z,56.62
2022-10-05T06:30:30.259Z,56.70
2022-10-05T06:33:04.998Z,56.60
2022-10-05T06:35:39.200Z,56.62
2022-10-05T06:38:14.640Z,57.13
2022-10-05T06:40:47.432Z,57.15
2022-10-05T06:43:20.723Z,56.73
2022-10-05T06:45:54.343Z,56.87
2022-10-05T06:48:27.065Z,56.58
2022-10-05T06:50:56.560Z,56.31
2022-10-05T06:53:31.313Z,56.24
2022-10-05T06:56:01.137Z,56.27
2022-10-05T06:58:37.334Z,56.28
2022-10-05T07:01:07.791Z,56.24
2022-10-05T07:03:40.758Z,56.25
2022-10-05T07:06:11.256Z,56.14
2022-10-05T07:08:46.315Z,56.45
2022-10-05T07:11:20.450Z,55.94
2022-10-05T07:13:56.451Z,56.39
2022-10-05T07:16:29.153Z,56.06
2022-10-05T07:19:04.347Z,56.97
2022-10-05T07:21:34.656Z,56.79
2022-10-05T07:24:11.028Z,57.10
2022-10-05T07:26:41.120Z,57.57
2022-10-05T07:29:15.370Z,58.03
2022-10-05T07:31:45.111Z,58.23
2022-10-05T07:34:19.466Z,58.59
2022-10-05T07:36:54.556Z,58.54
2022-10-05T07:39:42.038Z,58.60
2022-10-05T07:42:20.788Z,58.26
2022-10-05T07:44:51.777Z,57.83
2022-10-05T07:47:23.487Z,58.10
2022-10-05T07:49:53.472Z,58.81
2022-10-05T07:52:23.595Z,59.09
2022-10-05T07:54:57.495Z,59.26
2022-10-05T07:57:28.297Z,59.55
2022-10-05T07:59:57.648Z,59.30
2022-10-05T08:02:26.874Z,59.21
2022-10-05T08:04:55.983Z,59.13
2022-10-05T08:09:58.813Z,58.77
2022-10-05T08:12:30.205Z,58.82
2022-10-05T08:14:57.716Z,58.96
2022-10-05T08:17:30.468Z,59.26
2022-10-05T08:20:02.889Z,59.25
2022-10-05T08:22:31.739Z,58.69
2022-10-05T08:25:01.781Z,59.79
2022-10-05T08:27:32.966Z,59.57
2022-10-05T08:30:00.425Z,59.89
2022-10-05T08:32:29.211Z,59.51
2022-10-05T08:34:58.889Z,59.26
2022-10-05T08:37:26.872Z,59.03
2022-10-05T08:39:56.663Z,58.81
2022-10-05T08:42:37.353Z,58.32
2022-10-05T08:45:21.314Z,58.18
2022-10-05T08:48:02.513Z,58.07
2022-10-05T08:50:34.825Z,57.97
2022-10-05T08:53:17.708Z,57.79
2022-10-05T08:55:50.943Z,57.95
2022-10-05T08:58:26.814Z,57.88
2022-10-05T09:00:59.584Z,57.31
2022-10-05T09:03:35.444Z,56.88
2022-10-05T09:06:18.670Z,57.31
2022-10-05T09:08:52.418Z,57.77
2022-10-05T09:11:23.920Z,58.33
2022-10-05T09:13:59.151Z,59.15
2022-10-05T09:16:40.394Z,59.05
2022-10-05T09:19:21.655Z,58.71
2022-10-05T09:21:56.277Z,58.15
2022-10-05T09:24:26.968Z,58.27
2022-10-05T09:26:59.921Z,58.03
2022-10-05T09:29:40.049Z,58.01
2022-10-05T09:32:18.819Z,57.97
2022-10-05T09:34:52.534Z,59.60
2022-10-05T09:37:33.762Z,59.74
2022-10-05T09:40:14.928Z,59.46
2022-10-05T09:42:49.137Z,59.45
2022-10-05T09:45:27.410Z,58.92
2022-10-05T09:48:10.393Z,58.91
2022-10-05T09:50:52.040Z,59.10
2022-10-05T09:53:32.644Z,59.10
2022-10-05T09:56:09.622Z,59.44
2022-10-05T09:58:49.965Z,59.31
2022-10-05T10:01:33.493Z,58.47
2022-10-05T10:04:15.383Z,58.79
2022-10-05T10:06:54.528Z,58.36
2022-10-05T10:09:27.874Z,57.01
2022-10-05T10:12:06.291Z,56.91
2022-10-05T10:14:53.266Z,56.88
2022-10-05T10:17:32.247Z,56.86
2022-10-05T10:20:07.204Z,56.46
2022-10-05T10:22:46.334Z,56.23
2022-10-05T10:25:20.130Z,56.15
2022-10-05T10:27:57.514Z,56.29
2022-10-05T10:30:37.174Z,56.51
2022-10-05T10:33:19.368Z,56.33
2022-10-05T10:35:50.500Z,56.32
2022-10-05T10:38:22.869Z,56.70
2022-10-05T10:41:00.690Z,56.71
2022-10-05T10:43:35.532Z,56.28
2022-10-05T10:46:10.489Z,56.49
2022-10-05T10:48:48.566Z,56.80
2022-10-05T10:51:17.940Z,56.44
2022-10-05T10:53:55.256Z,56.30
2022-10-05T10:56:28.760Z,57.02
2022-10-05T10:59:14.141Z,56.70
2022-10-05T11:01:50.057Z,56.45
2022-10-05T11:04:24.281Z,56.49
2022-10-05T11:07:10.755Z,56.01
2022-10-05T11:09:50.099Z,56.03
2022-10-05T11:12:34.732Z,56.46
2022-10-05T11:15:04.160Z,56.51
2022-10-05T11:17:44.583Z,55.86
2022-10-05T11:20:22.212Z,56.37
2022-10-05T11:22:58.747Z,56.88
2022-10-05T11:25:32.238Z,56.71
2022-10-05T11:28:03.859Z,56.47
2022-10-05T11:30:41.432Z,56.56
2022-10-05T11:33:29.461Z,56.67
2022-10-05T11:36:00.463Z,56.78
2022-10-05T11:38:35.233Z,56.68
2022-10-05T11:41:11.801Z,56.61
2022-10-05T11:43:49.106Z,56.61
2022-10-05T11:46:18.560Z,56.49
2022-10-05T11:48:51.635Z,56.95
2022-10-05T11:51:28.910Z,57.20
2022-10-05T11:54:01.954Z,56.96
2022-10-05T11:56:31.242Z,57.09
2022-10-05T11:59:01.656Z,57.24
2022-10-05T12:01:29.867Z,57.25
2022-10-05T12:04:05.121Z,57.21
2022-10-05T12:06:41.775Z,57.32
2022-10-05T12:09:17.000Z,57.15
2022-10-05T12:11:56.896Z,57.17
2022-10-05T12:14:30.356Z,57.19
2022-10-05T12:17:00.436Z,57.38
2022-10-05T12:19:31.313Z,57.15
2022-10-05T12:22:01.162Z,57.48
2022-10-05T12:24:30.311Z,57.29
2022-10-05T12:27:00.843Z,57.40
2022-10-05T12:29:30.203Z,57.43
2022-10-05T12:31:59.758Z,57.51
2022-10-05T12:34:35.194Z,57.70
2022-10-05T12:37:05.035Z,57.92
2022-10-05T12:39:36.619Z,58.06
2022-10-05T12:42:09.599Z,58.34
2022-10-05T12:44:43.860Z,57.95
2022-10-05T12:47:16.577Z,58.17
2022-10-05T12:49:53.008Z,58.30
2022-10-05T12:52:28.077Z,58.24
2022-10-05T12:54:57.469Z,58.57
2022-10-05T12:57:30.058Z,58.43
2022-10-05T13:00:02.352Z,58.23
2022-10-05T13:02:32.120Z,58.64
2022-10-05T13:05:06.783Z,58.73
2022-10-05T13:07:41.040Z,58.19
2022-10-05T13:10:15.495Z,58.32
2022-10-05T13:12:46.297Z,58.27
2022-10-05T13:15:19.030Z,58.29
2022-10-05T13:17:49.930Z,58.31
2022-10-05T13:20:21.518Z,58.36
2022-10-05T13:22:52.814Z,58.64
2022-10-05T13:25:23.596Z,58.92
2022-10-05T13:27:55.677Z,58.86
2022-10-05T13:30:22.052Z,59.04
2022-10-05T13:32:52.949Z,59.09
2022-10-05T13:35:27.530Z,59.11
2022-10-05T13:37:59.694Z,58.95
2022-10-05T13:40:31.653Z,58.97
2022-10-05T13:43:00.701Z,59.45
2022-10-05T13:45:29.337Z,59.91
2022-10-05T13:48:03.072Z,59.84
2022-10-05T13:50:33.601Z,59.87
2022-10-05T13:53:05.651Z,59.69
2022-10-05T13:55:37.035Z,59.97
2022-10-05T13:58:07.250Z,59.85
2022-10-05T14:00:37.434Z,60.23
2022-10-05T14:03:23.417Z,60.81
2022-10-05T14:05:55.851Z,60.55
2022-10-05T14:08:25.243Z,60.66
2022-10-05T14:10:51.571Z,61.27
2022-10-05T14:13:20.612Z,61.35
2022-10-05T14:15:57.626Z,61.14
2022-10-05T14:18:24.829Z,61.50
2022-10-05T14:21:01.605Z,61.42
2022-10-05T14:23:28.751Z,61.43
2022-10-05T14:25:55.702Z,61.88
2022-10-05T14:28:24.486Z,61.85
2022-10-05T14:30:59.029Z,61.26
2022-10-05T14:33:27.015Z,61.39
2022-10-05T14:35:54.851Z,61.30
2022-10-05T14:38:23.957Z,61.03
2022-10-05T14:41:05.140Z,61.25
2022-10-05T14:43:32.528Z,60.98
2022-10-05T14:45:59.603Z,61.15
2022-10-05T14:48:27.136Z,61.20
2022-10-05T14:50:55.427Z,61.65
2022-10-05T14:53:24.147Z,61.14
2022-10-05T14:56:03.630Z,61.54
2022-10-05T14:58:37.549Z,62.10
2022-10-05T15:01:13.612Z,61.62
2022-10-05T15:03:45.575Z,61.29
2022-10-05T15:06:15.927Z,61.04
2022-10-05T15:08:51.403Z,61.16
2022-10-05T15:11:25.769Z,61.05
2022-10-05T15:13:52.599Z,60.98
2022-10-05T15:16:21.334Z,61.00
2022-10-05T15:18:51.450Z,61.10
2022-10-05T15:21:27.662Z,61.02
2022-10-05T15:23:57.348Z,61.08
2022-10-05T15:26:29.685Z,60.47
2022-10-05T15:29:00.021Z,60.36
2022-10-05T15:31:30.710Z,60.40
2022-10-05T15:34:00.393Z,60.05
2022-10-05T15:36:33.602Z,60.34
2022-10-05T15:39:03.725Z,60.24
2022-10-05T15:41:40.447Z,60.16
2022-10-05T15:44:14.347Z,60.02
2022-10-05T15:46:45.642Z,59.90
2022-10-05T15:49:18.360Z,59.88
2022-10-05T15:51:51.768Z,59.69
2022-10-05T15:54:25.212Z,59.70
2022-10-05T15:56:56.115Z,59.74
2022-10-05T15:59:25.785Z,59.79
2022-10-05T16:01:54.251Z,59.91
2022-10-05T16:04:23.297Z,59.91
2022-10-05T16:06:50.673Z,60.01
2022-10-05T16:09:24.053Z,59.85
2022-10-05T16:11:56.189Z,60.14
2022-10-05T16:14:28.993Z,60.02
2022-10-05T16:17:00.183Z,59.97
2022-10-05T16:19:29.477Z,60.35
2022-10-05T16:22:01.450Z,59.67
2022-10-05T16:24:40.890Z,59.74
2022-10-05T16:27:14.072Z,59.51
2022-10-05T16:29:44.165Z,59.41
2022-10-05T16:32:13.614Z,59.27
2022-10-05T16:34:48.757Z,59.31
2022-10-05T16:37:19.615Z,59.10
2022-10-05T16:39:49.989Z,58.52
2022-10-05T16:42:25.763Z,58.38
2022-10-05T16:44:55.932Z,58.36
2022-10-05T16:47:28.567Z,57.89
2022-10-05T16:50:01.624Z,57.80
2022-10-05T16:52:28.749Z,57.68
2022-10-05T16:54:57.283Z,57.80
2022-10-05T16:57:27.800Z,57.74
2022-10-05T17:00:00.459Z,57.47
2022-10-05T17:02:35.005Z,57.43
2022-10-05T17:05:10.044Z,57.41
2022-10-05T17:07:42.065Z,57.35
2022-10-05T17:10:20.227Z,57.19
2022-10-05T17:12:57.859Z,57.48
2022-10-05T17:15:30.739Z,57.16
2022-10-05T17:18:04.847Z,56.92
2022-10-05T17:20:46.032Z,56.96
2022-10-05T17:23:26.467Z,56.81
2022-10-05T17:25:54.667Z,56.93
2022-10-05T17:28:24.669Z,56.82
2022-10-05T17:31:06.578Z,56.76
2022-10-05T17:33:33.893Z,56.71
2022-10-05T17:36:12.036Z,56.67
2022-10-05T17:38:46.265Z,56.96
2022-10-05T17:41:17.516Z,56.39
2022-10-05T17:43:58.679Z,56.47
2022-10-05T17:46:38.503Z,56.25
2022-10-05T17:49:17.979Z,56.56
2022-10-05T17:51:57.804Z,56.43
2022-10-05T17:54:25.512Z,56.38
2022-10-05T17:57:06.685Z,56.49
2022-10-05T17:59:38.465Z,56.21
2022-10-05T18:02:17.876Z,56.40
2022-10-05T18:04:50.850Z,56.57
2022-10-05T18:07:19.103Z,56.19
2022-10-05T18:09:57.775Z,55.94
2022-10-05T18:12:27.053Z,56.07
2022-10-05T18:14:55.846Z,55.83
2022-10-05T18:17:37.041Z,56.15
2022-10-05T18:20:11.752Z,55.98
2022-10-05T18:22:38.764Z,55.92
2022-10-05T18:25:09.054Z,55.81
2022-10-05T18:27:49.382Z,55.87
2022-10-05T18:30:19.083Z,55.96
2022-10-05T18:33:00.271Z,55.64
2022-10-05T18:35:32.851Z,55.69
2022-10-05T18:38:03.027Z,55.47
2022-10-05T18:40:36.914Z,55.28
2022-10-05T18:43:09.861Z,55.27
2022-10-05T18:45:41.523Z,55.33
2022-10-05T18:48:17.033Z,55.07
2022-10-05T18:50:48.404Z,55.10
2022-10-05T18:53:21.251Z,55.04
2022-10-05T18:55:53.240Z,54.91
2022-10-05T18:58:22.234Z,55.23
2022-10-05T19:01:03.513Z,54.76
2022-10-05T19:03:35.197Z,54.54
2022-10-05T19:06:12.867Z,54.48
2022-10-05T19:08:45.723Z,54.27
2022-10-05T19:11:17.438Z,54.24
2022-10-05T19:13:48.362Z,54.16
2022-10-05T19:16:20.075Z,54.05
2022-10-05T19:18:55.312Z,54.03
2022-10-05T19:21:28.484Z,54.19
2022-10-05T19:24:03.404Z,54.30
2022-10-05T19:26:41.135Z,53.90
2022-10-05T19:29:19.340Z,53.94
2022-10-05T19:31:48.771Z,53.67
2022-10-05T19:34:22.723Z,53.57
2022-10-05T19:36:56.994Z,53.64
2022-10-05T19:39:28.694Z,53.58
2022-10-05T19:42:04.882Z,53.58
2022-10-05T19:44:37.618Z,53.56
2022-10-05T19:47:06.728Z,53.37
2022-10-05T19:49:35.181Z,53.34
2022-10-05T19:52:08.452Z,53.32
2022-10-05T19:54:34.853Z,53.18
2022-10-05T19:57:08.009Z,52.82
2022-10-05T19:59:34.337Z,52.82
2022-10-05T20:02:00.814Z,52.51
2022-10-05T20:04:31.689Z,52.57
2022-10-05T20:06:58.691Z,52.44
2022-10-05T20:09:26.381Z,52.59
2022-10-05T20:11:53.032Z,52.67
2022-10-05T20:14:20.179Z,52.49
2022-10-05T20:16:46.561Z,52.24
2022-10-05T20:19:27.761Z,52.12
2022-10-05T20:21:54.872Z,52.19
2022-10-05T20:24:21.879Z,51.89
2022-10-05T20:26:50.961Z,51.94
2022-10-05T20:29:17.402Z,51.90
2022-10-05T20:31:43.762Z,51.84
2022-10-05T20:34:10.207Z,51.88
2022-10-05T20:36:36.558Z,51.62
2022-10-05T20:39:02.920Z,52.00
2022-10-05T20:41:29.267Z,52.06
2022-10-05T20:43:56.856Z,51.83
2022-10-05T20:46:23.292Z,51.90
2022-10-05T20:48:49.623Z,51.82
2022-10-05T20:51:15.964Z,51.60
2022-10-05T20:53:42.308Z,51.69
2022-10-05T20:56:08.619Z,51.59
2022-10-05T20:58:34.935Z,51.47
2022-10-05T21:01:02.849Z,51.61
2022-10-05T21:03:29.243Z,51.55
2022-10-05T21:05:55.670Z,51.57
2022-10-05T21:08:22.003Z,51.55
2022-10-05T21:10:48.340Z,51.39
2022-10-05T21:13:14.639Z,51.42
2022-10-05T21:15:40.987Z,51.37
2022-10-05T21:18:08.652Z,51.12
2022-10-05T21:20:35.065Z,51.23
2022-10-05T21:23:01.535Z,51.18
2022-10-05T21:25:28.065Z,51.16
2022-10-05T21:27:54.648Z,51.15
2022-10-05T21:30:21.112Z,51.13
2022-10-05T21:32:47.734Z,51.45
2022-10-05T21:35:15.496Z,50.98
2022-10-05T21:37:42.020Z,50.99
2022-10-05T21:40:08.825Z,50.88
2022-10-05T21:42:35.274Z,50.83
2022-10-05T21:45:01.589Z,50.88
2022-10-05T21:47:28.143Z,50.87
2022-10-05T21:49:54.570Z,51.01
2022-10-05T21:52:22.200Z,50.94
2022-10-05T21:54:48.733Z,51.08
2022-10-05T21:57:15.120Z,51.12
2022-10-05T21:59:41.494Z,51.13
2022-10-05T22:02:07.956Z,50.91
2022-10-05T22:04:34.458Z,51.03
2022-10-05T22:07:00.820Z,50.93
2022-10-05T22:09:28.550Z,50.88
2022-10-05T22:11:54.932Z,50.97
2022-10-05T22:14:21.392Z,50.81
2022-10-05T22:16:47.896Z,50.84
2022-10-05T22:19:17.705Z,50.88
2022-10-05T22:21:44.097Z,50.98
2022-10-05T22:24:10.668Z,50.86
2022-10-05T22:26:38.753Z,50.92
2022-10-05T22:29:05.199Z,50.72
2022-10-05T22:31:31.585Z,50.83
2022-10-05T22:33:57.980Z,50.69
2022-10-05T22:36:24.614Z,50.75
2022-10-05T22:38:50.946Z,50.63
2022-10-05T22:41:17.398Z,50.63
2022-10-05T22:43:46.391Z,50.62
2022-10-05T22:46:13.328Z,51.06
2022-10-05T22:48:40.157Z,50.92
2022-10-05T22:51:06.781Z,50.87
2022-10-05T22:53:33.137Z,50.73
2022-10-05T22:56:03.443Z,50.68
2022-10-05T22:58:30.134Z,50.67
2022-10-05T23:01:00.979Z,50.74
2022-10-05T23:03:27.390Z,50.80
2022-10-05T23:05:57.071Z,50.71
2022-10-05T23:08:23.537Z,50.66
2022-10-05T23:10:49.832Z,50.97
2022-10-05T23:13:16.268Z,51.01
2022-10-05T23:15:42.609Z,50.92
2022-10-05T23:18:11.029Z,50.76
2022-10-05T23:20:37.347Z,50.56
2022-10-05T23:23:03.662Z,50.68
2022-10-05T23:25:29.994Z,50.56
2022-10-05T23:27:56.380Z,50.67
2022-10-05T23:30:22.737Z,50.60
2022-10-05T23:32:49.106Z,50.48
2022-10-05T23:35:16.720Z,50.56
2022-10-05T23:37:43.954Z,50.57
2022-10-05T23:40:11.462Z,50.69
2022-10-05T23:42:38.056Z,50.57
2022-10-05T23:45:04.660Z,50.52
2022-10-05T23:47:31.013Z,50.43
2022-10-05T23:49:57.387Z,50.42
2022-10-05T23:52:25.029Z,50.42
2022-10-05T23:54:51.380Z,50.35
2022-10-05T23:57:18.123Z,50.41
2022-10-05T23:59:44.585Z,50.24
